createdAt,value
2022-08-07T00:00:03.473Z,1008.53
2022-08-07T00:00:59.499Z,1008.53
2022-08-07T00:02:40.797Z,1008.51
2022-08-07T00:02:59.750Z,1008.53
2022-08-07T00:03:58.716Z,1008.49
2022-08-07T00:04:58.803Z,1008.55
2022-08-07T00:05:58.716Z,1008.54
2022-08-07T00:07:01.341Z,1008.57
2022-08-07T00:08:02.029Z,1008.53
2022-08-07T00:08:58.698Z,1008.51
2022-08-07T00:10:19.140Z,1008.52
2022-08-07T00:11:00.679Z,1008.57
2022-08-07T00:11:59.016Z,1008.54
2022-08-07T00:13:01.213Z,1008.53
2022-08-07T00:13:58.644Z,1008.54
2022-08-07T00:14:58.629Z,1008.50
2022-08-07T00:15:58.648Z,1008.49
2022-08-07T00:16:58.619Z,1008.44
2022-08-07T00:17:58.645Z,1008.41
2022-08-07T00:18:58.605Z,1008.48
2022-08-07T00:20:01.532Z,1008.42
2022-08-07T00:21:01.355Z,1008.42
2022-08-07T00:22:01.976Z,1008.41
2022-08-07T00:22:58.591Z,1008.48
2022-08-07T00:23:58.563Z,1008.42
2022-08-07T00:24:58.567Z,1008.38
2022-08-07T00:26:01.820Z,1008.46
2022-08-07T00:27:07.533Z,1008.42
2022-08-07T00:27:59.553Z,1008.44
2022-08-07T00:28:58.723Z,1008.39
2022-08-07T00:29:58.534Z,1008.43
2022-08-07T00:30:58.522Z,1008.40
2022-08-07T00:31:58.509Z,1008.40
2022-08-07T00:32:58.623Z,1008.40
2022-08-07T00:33:58.521Z,1008.37
2022-08-07T00:34:58.482Z,1008.37
2022-08-07T00:35:58.489Z,1008.38
2022-08-07T00:36:58.471Z,1008.34
2022-08-07T00:37:58.480Z,1008.29
2022-08-07T00:38:58.544Z,1008.35
2022-08-07T00:39:58.449Z,1008.33
2022-08-07T00:40:59.447Z,1008.30
2022-08-07T00:42:02.369Z,1008.32
2022-08-07T00:42:59.444Z,1008.26
2022-08-07T00:44:00.725Z,1008.29
2022-08-07T00:44:58.411Z,1008.24
2022-08-07T00:45:58.409Z,1008.26
2022-08-07T00:46:58.410Z,1008.22
2022-08-07T00:48:09.839Z,1008.23
2022-08-07T00:48:59.379Z,1008.31
2022-08-07T00:50:20.774Z,1008.26
2022-08-07T00:50:59.395Z,1008.31
2022-08-07T00:51:58.879Z,1008.34
2022-08-07T00:52:58.343Z,1008.33
2022-08-07T00:53:58.341Z,1008.34
2022-08-07T00:54:58.354Z,1008.28
2022-08-07T00:56:02.053Z,1008.28
2022-08-07T00:56:59.342Z,1008.25
2022-08-07T00:57:58.331Z,1008.28
2022-08-07T00:58:58.298Z,1008.27
2022-08-07T00:59:58.322Z,1008.22
2022-08-07T01:00:58.332Z,1008.26
2022-08-07T01:01:58.330Z,1008.23
2022-08-07T01:02:58.299Z,1008.22
2022-08-07T01:04:00.118Z,1008.24
2022-08-07T01:04:59.074Z,1008.23
2022-08-07T01:05:58.243Z,1008.26
2022-08-07T01:06:58.234Z,1008.22
2022-08-07T01:07:58.259Z,1008.19
2022-08-07T01:08:58.618Z,1008.23
2022-08-07T01:10:06.226Z,1008.21
2022-08-07T01:11:00.738Z,1008.22
2022-08-07T01:12:23.969Z,1008.23
2022-08-07T01:12:59.248Z,1008.16
2022-08-07T01:13:58.197Z,1008.21
2022-08-07T01:15:01.611Z,1008.20
2022-08-07T01:16:00.826Z,1008.18
2022-08-07T01:16:59.185Z,1008.21
2022-08-07T01:17:58.177Z,1008.18
2022-08-07T01:18:58.150Z,1008.20
2022-08-07T01:19:58.142Z,1008.16
2022-08-07T01:20:59.798Z,1008.11
2022-08-07T01:21:58.115Z,1008.14
2022-08-07T01:23:12.081Z,1008.17
2022-08-07T01:23:59.095Z,1008.16
2022-08-07T01:24:58.111Z,1008.13
2022-08-07T01:25:58.105Z,1008.11
2022-08-07T01:26:58.103Z,1008.16
2022-08-07T01:27:58.144Z,1008.10
2022-08-07T01:28:58.090Z,1008.19
2022-08-07T01:29:58.057Z,1008.16
2022-08-07T01:30:58.055Z,1008.17
2022-08-07T01:31:59.335Z,1008.07
2022-08-07T01:32:58.215Z,1008.12
2022-08-07T01:33:58.095Z,1008.10
2022-08-07T01:34:58.013Z,1008.15
2022-08-07T01:36:06.387Z,1008.14
2022-08-07T01:36:59.003Z,1008.10
2022-08-07T01:37:57.992Z,1008.09
2022-08-07T01:38:58.031Z,1008.09
2022-08-07T01:39:58.056Z,1008.17
2022-08-07T01:40:57.991Z,1008.12
2022-08-07T01:42:38.777Z,1008.17
2022-08-07T01:42:59.663Z,1008.20
2022-08-07T01:43:57.972Z,1008.20
2022-08-07T01:44:57.948Z,1008.13
2022-08-07T02:02:32.866Z,1008.19
2022-08-07T02:03:32.042Z,1008.26
2022-08-07T02:04:32.807Z,1008.16
2022-08-07T02:05:43.088Z,1008.15
2022-08-07T02:06:32.710Z,1008.20
2022-08-07T02:07:45.131Z,1008.19
2022-08-07T02:08:32.695Z,1008.13
2022-08-07T02:09:33.769Z,1008.17
2022-08-07T02:10:32.659Z,1008.14
2022-08-07T02:12:04.279Z,1008.18
2022-08-07T02:12:32.646Z,1008.16
2022-08-07T02:13:56.533Z,1008.13
2022-08-07T02:14:36.217Z,1008.19
2022-08-07T02:15:34.097Z,1008.17
2022-08-07T02:16:33.486Z,1008.13
2022-08-07T02:17:34.306Z,1008.13
2022-08-07T02:18:31.621Z,1008.07
2022-08-07T02:20:07.470Z,1008.05
2022-08-07T02:20:32.737Z,1008.08
2022-08-07T02:21:56.172Z,1008.10
2022-08-07T02:23:03.509Z,1008.12
2022-08-07T02:23:35.817Z,1008.07
2022-08-07T02:24:31.587Z,1008.08
2022-08-07T02:26:10.532Z,1008.15
2022-08-07T02:26:34.399Z,1008.11
2022-08-07T02:27:34.715Z,1008.16
2022-08-07T02:28:31.525Z,1008.09
2022-08-07T02:29:31.527Z,1008.12
2022-08-07T02:30:31.530Z,1008.07
2022-08-07T02:31:32.746Z,1008.10
2022-08-07T02:32:31.491Z,1008.12
2022-08-07T02:33:42.074Z,1008.05
2022-08-07T02:34:32.491Z,1008.09
2022-08-07T02:36:29.968Z,1008.11
2022-08-07T02:36:33.057Z,1008.07
2022-08-07T02:37:33.928Z,1008.07
2022-08-07T02:38:32.082Z,1008.03
2022-08-07T02:40:01.592Z,1008.04
2022-08-07T02:40:35.365Z,1008.03
2022-08-07T02:41:33.630Z,1008.05
2022-08-07T02:42:32.393Z,1008.07
2022-08-07T02:43:31.395Z,1008.09
2022-08-07T02:44:34.763Z,1008.03
2022-08-07T02:46:00.576Z,1008.09
2022-08-07T02:46:32.367Z,1008.02
2022-08-07T02:47:45.053Z,1008.05
2022-08-07T02:48:32.345Z,1008.11
2022-08-07T02:49:57.900Z,1008.06
2022-08-07T02:50:32.353Z,1008.05
2022-08-07T02:51:42.650Z,1007.99
2022-08-07T02:52:32.627Z,1008.04
2022-08-07T02:53:31.316Z,1008.05
2022-08-07T02:54:32.319Z,1008.11
2022-08-07T02:56:02.218Z,1008.07
2022-08-07T02:56:32.313Z,1008.08
2022-08-07T02:57:34.931Z,1008.03
2022-08-07T02:58:33.368Z,1008.04
2022-08-07T02:59:31.278Z,1008.04
2022-08-07T03:00:32.235Z,1008.09
2022-08-07T03:01:36.123Z,1008.02
2022-08-07T03:02:32.233Z,1008.12
2022-08-07T03:03:49.105Z,1008.05
2022-08-07T03:04:32.290Z,1008.03
2022-08-07T03:05:35.872Z,1008.09
2022-08-07T03:06:34.572Z,1007.99
2022-08-07T03:08:05.421Z,1007.97
2022-08-07T03:08:32.209Z,1007.94
2022-08-07T03:09:41.858Z,1007.97
2022-08-07T03:10:32.204Z,1007.94
2022-08-07T03:11:32.717Z,1007.92
2022-08-07T03:12:31.325Z,1007.93
2022-08-07T03:13:39.173Z,1008.04
2022-08-07T03:14:32.160Z,1007.99
2022-08-07T03:15:55.867Z,1007.98
2022-08-07T03:16:32.132Z,1007.98
2022-08-07T03:17:31.255Z,1007.90
2022-08-07T03:18:34.753Z,1007.91
2022-08-07T03:19:37.281Z,1007.90
2022-08-07T03:20:32.107Z,1007.90
2022-08-07T03:21:33.011Z,1008.02
2022-08-07T03:22:31.115Z,1007.97
2022-08-07T03:23:33.865Z,1007.95
2022-08-07T03:24:32.074Z,1007.94
2022-08-07T03:25:32.509Z,1007.95
2022-08-07T03:26:32.057Z,1007.98
2022-08-07T03:28:09.249Z,1008.01
2022-08-07T03:28:38.024Z,1008.01
2022-08-07T03:29:32.050Z,1007.99
2022-08-07T03:30:31.684Z,1008.04
2022-08-07T03:31:42.878Z,1008.00
2022-08-07T03:32:32.025Z,1007.92
2022-08-07T03:33:32.307Z,1007.98
2022-08-07T03:34:32.003Z,1007.98
2022-08-07T03:35:37.911Z,1007.93
2022-08-07T03:36:31.980Z,1007.93
2022-08-07T03:37:32.767Z,1007.91
2022-08-07T03:38:33.328Z,1007.96
2022-08-07T03:39:58.882Z,1007.97
2022-08-07T03:40:36.566Z,1007.95
2022-08-07T03:41:42.551Z,1007.92
2022-08-07T03:42:31.934Z,1007.88
2022-08-07T03:43:32.236Z,1007.96
2022-08-07T03:44:34.527Z,1007.93
2022-08-07T03:45:31.607Z,1007.90
2022-08-07T03:46:31.945Z,1007.95
2022-08-07T04:01:53.108Z,1008.13
2022-08-07T04:02:56.791Z,1008.11
2022-08-07T04:03:55.023Z,1008.12
2022-08-07T04:04:54.125Z,1008.08
2022-08-07T04:05:58.876Z,1008.07
2022-08-07T04:06:55.120Z,1008.00
2022-08-07T04:07:54.099Z,1008.03
2022-08-07T04:08:54.095Z,1008.04
2022-08-07T04:09:54.090Z,1007.98
2022-08-07T04:12:20.775Z,1007.93
2022-08-07T04:12:28.268Z,1007.97
2022-08-07T04:12:55.066Z,1008.01
2022-08-07T04:14:09.389Z,1008.04
2022-08-07T04:14:55.058Z,1007.98
2022-08-07T04:15:54.062Z,1007.94
2022-08-07T04:16:58.390Z,1007.97
2022-08-07T04:18:58.695Z,1008.00
2022-08-07T04:18:59.338Z,1007.93
2022-08-07T04:19:55.333Z,1007.93
2022-08-07T04:20:54.623Z,1007.99
2022-08-07T04:21:59.681Z,1007.98
2022-08-07T04:23:01.866Z,1007.99
2022-08-07T04:24:07.094Z,1007.97
2022-08-07T04:24:54.987Z,1007.95
2022-08-07T04:25:53.993Z,1007.90
2022-08-07T04:26:53.977Z,1007.80
2022-08-07T04:28:00.378Z,1007.75
2022-08-07T04:28:54.931Z,1007.74
2022-08-07T04:30:01.260Z,1007.71
2022-08-07T04:30:57.387Z,1007.60
2022-08-07T04:32:02.898Z,1007.55
2022-08-07T04:32:58.288Z,1007.53
2022-08-07T04:33:55.118Z,1007.51
2022-08-07T04:34:53.910Z,1007.51
2022-08-07T04:35:54.260Z,1007.51
2022-08-07T04:36:53.914Z,1007.46
2022-08-07T04:38:03.332Z,1007.49
2022-08-07T04:38:54.869Z,1007.43
2022-08-07T04:39:53.931Z,1007.39
2022-08-07T04:40:56.697Z,1007.39
2022-08-07T04:41:53.839Z,1007.38
2022-08-07T04:42:53.857Z,1007.43
2022-08-07T04:44:11.863Z,1007.40
2022-08-07T04:45:03.013Z,1007.37
2022-08-07T04:46:01.033Z,1007.31
2022-08-07T04:47:03.873Z,1007.31
2022-08-07T04:47:58.610Z,1007.30
2022-08-07T04:48:55.432Z,1007.22
2022-08-07T04:50:03.595Z,1007.26
2022-08-07T04:50:54.774Z,1007.26
2022-08-07T04:51:53.795Z,1007.26
2022-08-07T04:52:53.742Z,1007.28
2022-08-07T04:54:01.583Z,1007.30
2022-08-07T04:54:54.739Z,1007.32
2022-08-07T04:58:10.352Z,1007.31
2022-08-07T04:58:15.219Z,1007.30
2022-08-07T04:58:15.735Z,1007.29
2022-08-07T04:59:17.405Z,1007.26
2022-08-07T05:00:11.764Z,1007.21
2022-08-07T05:00:54.804Z,1007.17
2022-08-07T05:01:53.676Z,1007.18
2022-08-07T05:02:53.666Z,1007.12
2022-08-07T05:04:07.951Z,1007.13
2022-08-07T05:04:54.655Z,1007.10
2022-08-07T05:05:57.120Z,1007.10
2022-08-07T05:06:54.649Z,1007.20
2022-08-07T05:07:55.578Z,1007.18
2022-08-07T05:09:00.862Z,1007.13
2022-08-07T05:09:54.631Z,1007.14
2022-08-07T05:10:58.475Z,1007.07
2022-08-07T05:11:56.836Z,1007.07
2022-08-07T05:12:56.188Z,1007.04
2022-08-07T05:14:51.941Z,1007.02
2022-08-07T05:15:04.047Z,1007.04
2022-08-07T05:15:55.595Z,1007.05
2022-08-07T05:16:53.565Z,1007.08
2022-08-07T05:17:54.941Z,1007.06
2022-08-07T05:18:53.586Z,1007.00
2022-08-07T05:19:53.568Z,1007.07
2022-08-07T05:20:53.679Z,1006.99
2022-08-07T05:22:00.247Z,1007.07
2022-08-07T05:22:54.541Z,1006.96
2022-08-07T05:23:53.521Z,1006.97
2022-08-07T05:24:53.540Z,1006.95
2022-08-07T05:26:10.412Z,1006.89
2022-08-07T05:26:54.490Z,1006.92
2022-08-07T05:28:03.202Z,1006.88
2022-08-07T05:28:55.614Z,1006.97
2022-08-07T05:29:53.737Z,1006.94
2022-08-07T05:30:53.495Z,1006.92
2022-08-07T05:31:53.467Z,1006.91
2022-08-07T05:32:53.445Z,1006.90
2022-08-07T05:34:04.474Z,1006.92
2022-08-07T05:34:54.442Z,1006.89
2022-08-07T05:35:53.435Z,1006.87
2022-08-07T05:36:53.454Z,1006.81
2022-08-07T05:38:08.652Z,1006.86
2022-08-07T05:39:00.803Z,1006.77
2022-08-07T05:40:13.746Z,1006.82
2022-08-07T05:40:54.431Z,1006.87
2022-08-07T05:42:02.375Z,1006.88
2022-08-07T05:42:55.831Z,1006.84
2022-08-07T05:44:12.237Z,1006.83
2022-08-07T05:45:14.062Z,1006.71
2022-08-07T05:45:56.519Z,1006.80
2022-08-07T05:46:53.447Z,1006.79
2022-08-07T05:48:01.141Z,1006.77
2022-08-07T05:48:58.363Z,1006.75
2022-08-07T05:49:54.346Z,1006.84
2022-08-07T05:50:53.306Z,1006.82
2022-08-07T05:51:53.451Z,1006.86
2022-08-07T05:52:53.294Z,1006.84
2022-08-07T05:54:09.581Z,1006.83
2022-08-07T05:54:55.807Z,1006.83
2022-08-07T05:56:03.735Z,1006.84
2022-08-07T05:56:54.709Z,1006.86
2022-08-07T05:57:53.250Z,1006.93
2022-08-07T05:58:53.244Z,1006.91
2022-08-07T05:59:57.290Z,1006.91
2022-08-07T06:00:53.224Z,1006.88
2022-08-07T06:01:53.291Z,1006.89
2022-08-07T06:02:53.238Z,1006.90
2022-08-07T06:03:58.549Z,1006.88
2022-08-07T06:04:54.214Z,1006.89
2022-08-07T06:05:56.656Z,1006.81
2022-08-07T06:06:56.438Z,1006.81
2022-08-07T06:08:12.902Z,1006.85
2022-08-07T06:08:54.176Z,1006.86
2022-08-07T06:10:05.504Z,1006.82
2022-08-07T06:10:54.860Z,1006.78
2022-08-07T06:11:53.153Z,1006.83
2022-08-07T06:12:53.176Z,1006.79
2022-08-07T06:14:11.731Z,1006.83
2022-08-07T06:14:54.134Z,1006.82
2022-08-07T06:15:53.119Z,1006.83
2022-08-07T06:16:56.252Z,1006.75
2022-08-07T06:17:53.723Z,1006.73
2022-08-07T06:18:55.613Z,1006.70
2022-08-07T06:20:03.434Z,1006.71
2022-08-07T06:22:11.654Z,1006.66
2022-08-07T06:22:14.628Z,1006.73
2022-08-07T06:23:02.178Z,1006.71
2022-08-07T06:24:45.641Z,1006.67
2022-08-07T06:24:58.480Z,1006.67
2022-08-07T06:25:56.907Z,1006.65
2022-08-07T06:26:53.028Z,1006.68
2022-08-07T06:28:01.103Z,1006.69
2022-08-07T06:28:54.025Z,1006.67
2022-08-07T06:29:53.041Z,1006.70
2022-08-07T06:30:53.197Z,1006.68
2022-08-07T06:31:53.043Z,1006.71
2022-08-07T06:32:52.987Z,1006.67
2022-08-07T06:33:52.982Z,1006.62
2022-08-07T06:34:52.967Z,1006.64
2022-08-07T06:36:13.380Z,1006.64
2022-08-07T06:36:53.971Z,1006.64
2022-08-07T06:37:53.066Z,1006.67
2022-08-07T06:40:12.681Z,1006.65
2022-08-07T06:40:17.843Z,1006.61
2022-08-07T06:40:53.978Z,1006.69
2022-08-07T06:42:02.689Z,1006.66
2022-08-07T06:42:53.905Z,1006.68
2022-08-07T06:44:01.343Z,1006.66
2022-08-07T06:44:53.890Z,1006.63
2022-08-07T06:45:55.337Z,1006.64
2022-08-07T06:47:10.452Z,1006.63
2022-08-07T06:47:58.571Z,1006.62
2022-08-07T06:48:53.891Z,1006.58
2022-08-07T06:49:58.649Z,1006.64
2022-08-07T06:50:54.874Z,1006.64
2022-08-07T06:51:53.913Z,1006.57
2022-08-07T06:52:53.845Z,1006.59
2022-08-07T06:55:27.766Z,1006.63
2022-08-07T06:55:31.286Z,1006.69
2022-08-07T06:56:01.463Z,1006.62
2022-08-07T06:56:53.796Z,1006.58
2022-08-07T06:57:56.926Z,1006.60
2022-08-07T07:00:12.532Z,1006.58
2022-08-07T07:00:13.373Z,1006.58
2022-08-07T07:00:53.772Z,1006.56
2022-08-07T07:01:52.861Z,1006.60
2022-08-07T07:02:57.748Z,1006.57
2022-08-07T07:03:58.892Z,1006.57
2022-08-07T07:04:54.996Z,1006.51
2022-08-07T07:06:05.156Z,1006.61
2022-08-07T07:07:00.209Z,1006.60
2022-08-07T07:07:59.441Z,1006.67
2022-08-07T07:08:53.736Z,1006.55
2022-08-07T07:09:52.732Z,1006.63
2022-08-07T07:10:54.909Z,1006.58
2022-08-07T07:12:09.682Z,1006.67
2022-08-07T07:12:53.816Z,1006.65
2022-08-07T07:13:58.277Z,1006.69
2022-08-07T07:14:53.704Z,1006.65
2022-08-07T07:15:52.670Z,1006.64
2022-08-07T07:16:53.350Z,1006.66
2022-08-07T07:17:52.645Z,1006.62
2022-08-07T07:18:52.732Z,1006.65
2022-08-07T07:19:57.688Z,1006.65
2022-08-07T07:20:53.675Z,1006.59
2022-08-07T07:22:04.595Z,1006.63
2022-08-07T07:24:07.061Z,1006.57
2022-08-07T07:24:11.126Z,1006.59
2022-08-07T07:24:56.666Z,1006.63
2022-08-07T07:26:32.686Z,1006.61
2022-08-07T07:26:54.314Z,1006.63
2022-08-07T07:27:56.190Z,1006.56
2022-08-07T07:29:38.931Z,1006.57
2022-08-07T07:30:09.056Z,1006.58
2022-08-07T07:30:53.551Z,1006.59
2022-08-07T07:31:52.577Z,1006.55
2022-08-07T07:32:52.537Z,1006.54
2022-08-07T07:33:56.820Z,1006.60
2022-08-07T07:34:53.536Z,1006.54
2022-08-07T07:36:05.602Z,1006.57
2022-08-07T07:36:54.206Z,1006.60
2022-08-07T07:38:02.092Z,1006.57
2022-08-07T07:38:54.533Z,1006.59
2022-08-07T07:39:55.283Z,1006.59
2022-08-07T07:40:52.487Z,1006.58
2022-08-07T07:42:13.251Z,1006.53
2022-08-07T07:42:54.026Z,1006.59
2022-08-07T07:44:17.143Z,1006.61
2022-08-07T07:44:53.467Z,1006.60
2022-08-07T07:46:36.836Z,1006.60
2022-08-07T07:47:00.242Z,1006.53
2022-08-07T07:47:53.626Z,1006.54
2022-08-07T07:49:00.287Z,1006.59
2022-08-07T07:50:34.516Z,1006.54
2022-08-07T07:50:53.400Z,1006.52
2022-08-07T07:51:57.425Z,1006.52
2022-08-07T07:52:53.403Z,1006.54
2022-08-07T07:53:52.781Z,1006.53
2022-08-07T07:54:53.451Z,1006.44
2022-08-07T07:55:54.812Z,1006.51
2022-08-07T07:56:53.380Z,1006.46
2022-08-07T07:57:54.036Z,1006.46
2022-08-07T07:58:53.381Z,1006.40
2022-08-07T07:59:53.942Z,1006.42
2022-08-07T08:00:54.122Z,1006.36
2022-08-07T08:02:01.929Z,1006.35
2022-08-07T08:03:04.621Z,1006.32
2022-08-07T08:04:09.344Z,1006.31
2022-08-07T08:04:53.395Z,1006.38
2022-08-07T08:05:54.912Z,1006.34
2022-08-07T08:06:53.356Z,1006.28
2022-08-07T08:08:00.994Z,1006.35
2022-08-07T08:08:53.292Z,1006.36
2022-08-07T08:10:05.132Z,1006.34
2022-08-07T08:10:53.280Z,1006.32
2022-08-07T08:12:02.200Z,1006.34
2022-08-07T08:12:59.637Z,1006.33
2022-08-07T08:13:55.806Z,1006.32
2022-08-07T08:14:52.230Z,1006.33
2022-08-07T08:15:58.596Z,1006.29
2022-08-07T08:16:53.252Z,1006.30
2022-08-07T08:17:58.087Z,1006.28
2022-08-07T08:18:53.243Z,1006.36
2022-08-07T08:20:17.523Z,1006.32
2022-08-07T08:20:54.040Z,1006.26
2022-08-07T08:21:58.610Z,1006.33
2022-08-07T08:23:24.151Z,1006.31
2022-08-07T08:23:52.190Z,1006.27
2022-08-07T08:25:04.438Z,1006.26
2022-08-07T08:25:54.565Z,1006.31
2022-08-07T08:26:52.180Z,1006.25
2022-08-07T08:27:57.322Z,1006.25
2022-08-07T08:28:53.144Z,1006.21
2022-08-07T08:29:55.716Z,1006.22
2022-08-07T08:30:55.606Z,1006.23
2022-08-07T08:32:17.366Z,1006.20
2022-08-07T08:32:53.926Z,1006.22
2022-08-07T08:33:55.911Z,1006.23
2022-08-07T08:34:53.145Z,1006.19
2022-08-07T08:35:52.152Z,1006.22
2022-08-07T08:36:56.221Z,1006.19
2022-08-07T08:38:00.697Z,1006.10
2022-08-07T08:38:53.102Z,1006.13
2022-08-07T08:39:55.202Z,1006.18
2022-08-07T08:40:53.114Z,1006.11
2022-08-07T08:41:58.667Z,1006.09
2022-08-07T08:42:53.061Z,1006.08
2022-08-07T08:43:59.205Z,1006.07
2022-08-07T08:44:53.174Z,1006.06
2022-08-07T08:45:59.048Z,1006.09
2022-08-07T08:46:53.017Z,1006.12
2022-08-07T08:47:54.874Z,1006.05
2022-08-07T08:48:52.785Z,1006.10
2022-08-07T08:50:02.781Z,1006.09
2022-08-07T08:50:54.801Z,1006.05
2022-08-07T08:52:14.009Z,1006.05
2022-08-07T08:52:54.270Z,1006.01
2022-08-07T08:53:51.991Z,1005.99
2022-08-07T08:54:51.971Z,1005.99
2022-08-07T08:55:54.414Z,1006.02
2022-08-07T08:56:52.966Z,1006.00
2022-08-07T08:57:52.111Z,1005.94
2022-08-07T08:58:54.909Z,1006.06
2022-08-07T08:59:54.778Z,1006.03
2022-08-07T09:00:52.606Z,1005.98
2022-08-07T09:01:51.985Z,1006.00
2022-08-07T09:02:54.004Z,1006.04
2022-08-07T09:03:52.710Z,1006.01
2022-08-07T09:04:55.004Z,1005.98
2022-08-07T09:05:57.388Z,1005.99
2022-08-07T09:06:53.735Z,1005.95
2022-08-07T09:07:58.319Z,1005.97
2022-08-07T09:08:52.881Z,1005.95
2022-08-07T09:09:57.060Z,1005.92
2022-08-07T09:10:52.900Z,1005.94
2022-08-07T09:11:56.198Z,1005.96
2022-08-07T09:12:53.185Z,1005.90
2022-08-07T09:13:51.817Z,1005.93
2022-08-07T09:14:58.719Z,1005.87
2022-08-07T09:16:24.389Z,1005.89
2022-08-07T09:16:52.790Z,1005.84
2022-08-07T09:17:59.545Z,1005.91
2022-08-07T09:18:58.591Z,1005.84
2022-08-07T09:19:55.441Z,1005.82
2022-08-07T09:20:58.312Z,1005.81
2022-08-07T09:22:09.760Z,1005.83
2022-08-07T09:24:35.085Z,1005.78
2022-08-07T09:24:54.865Z,1005.82
2022-08-07T09:25:00.450Z,1005.86
2022-08-07T09:25:54.265Z,1005.73
2022-08-07T09:26:51.761Z,1005.77
2022-08-07T09:27:54.541Z,1005.76
2022-08-07T09:30:04.150Z,1005.71
2022-08-07T09:30:04.787Z,1005.71
2022-08-07T09:30:54.899Z,1005.61
2022-08-07T09:31:52.878Z,1005.70
2022-08-07T09:32:52.316Z,1005.75
2022-08-07T09:33:56.981Z,1005.63
2022-08-07T09:34:54.318Z,1005.70
2022-08-07T09:36:03.865Z,1005.69
2022-08-07T09:36:52.649Z,1005.71
2022-08-07T09:37:53.953Z,1005.67
2022-08-07T09:38:53.974Z,1005.67
2022-08-07T09:39:53.903Z,1005.63
2022-08-07T09:40:53.133Z,1005.66
2022-08-07T09:41:58.930Z,1005.62
2022-08-07T09:42:52.611Z,1005.66
2022-08-07T09:44:05.336Z,1005.67
2022-08-07T09:47:24.545Z,1005.62
2022-08-07T09:47:50.658Z,1005.64
2022-08-07T09:47:51.123Z,1005.56
2022-08-07T09:48:02.486Z,1005.64
2022-08-07T09:50:01.739Z,1005.53
2022-08-07T09:50:02.272Z,1005.51
2022-08-07T09:50:52.552Z,1005.59
2022-08-07T09:52:15.425Z,1005.60
2022-08-07T09:52:53.913Z,1005.55
2022-08-07T09:53:57.002Z,1005.63
2022-08-07T09:54:53.622Z,1005.61
2022-08-07T09:56:03.417Z,1005.53
2022-08-07T09:56:52.519Z,1005.61
2022-08-07T09:57:51.584Z,1005.60
2022-08-07T09:58:51.498Z,1005.55
2022-08-07T10:00:00.718Z,1005.56
2022-08-07T10:00:52.559Z,1005.56
2022-08-07T10:01:54.345Z,1005.53
2022-08-07T10:02:55.072Z,1005.53
2022-08-07T10:04:05.008Z,1005.50
2022-08-07T10:04:53.042Z,1005.44
2022-08-07T10:05:59.278Z,1005.48
2022-08-07T10:06:54.015Z,1005.39
2022-08-07T10:07:53.652Z,1005.39
2022-08-07T10:08:51.478Z,1005.46
2022-08-07T10:10:01.131Z,1005.36
2022-08-07T10:12:01.578Z,1005.38
2022-08-07T10:12:52.648Z,1005.38
2022-08-07T10:14:00.733Z,1005.41
2022-08-07T10:14:55.191Z,1005.36
2022-08-07T10:15:51.944Z,1005.37
2022-08-07T10:16:51.394Z,1005.34
2022-08-07T10:18:01.875Z,1005.32
2022-08-07T10:18:52.366Z,1005.33
2022-08-07T10:19:51.394Z,1005.30
2022-08-07T10:20:51.347Z,1005.32
2022-08-07T10:22:15.822Z,1005.32
2022-08-07T10:22:52.378Z,1005.30
2022-08-07T10:24:05.582Z,1005.20
2022-08-07T10:24:52.315Z,1005.21
2022-08-07T10:25:51.974Z,1005.11
2022-08-07T10:26:53.044Z,1005.16
2022-08-07T10:27:51.643Z,1005.20
2022-08-07T10:28:51.336Z,1005.15
2022-08-07T10:29:51.677Z,1005.15
2022-08-07T10:30:51.285Z,1005.15
2022-08-07T10:31:51.258Z,1005.19
2022-08-07T10:32:53.614Z,1005.16
2022-08-07T10:34:06.909Z,1005.10
2022-08-07T10:34:52.229Z,1005.03
2022-08-07T10:35:56.675Z,1005.03
2022-08-07T10:36:52.229Z,1005.06
2022-08-07T10:38:21.120Z,1005.01
2022-08-07T10:38:52.581Z,1004.99
2022-08-07T10:40:03.350Z,1005.04
2022-08-07T10:40:52.210Z,1005.00
2022-08-07T10:41:53.848Z,1005.03
2022-08-07T10:42:52.343Z,1005.03
2022-08-07T10:43:51.184Z,1005.02
2022-08-07T10:44:52.232Z,1004.96
2022-08-07T10:45:58.224Z,1005.00
2022-08-07T10:46:53.162Z,1004.94
2022-08-07T10:47:53.157Z,1004.95
2022-08-07T10:48:51.139Z,1004.90
2022-08-07T10:49:51.783Z,1004.83
2022-08-07T10:50:51.867Z,1004.90
2022-08-07T10:52:02.061Z,1004.96
2022-08-07T10:52:52.149Z,1004.91
2022-08-07T10:53:51.154Z,1004.94
2022-08-07T10:54:53.371Z,1004.95
2022-08-07T10:55:53.350Z,1004.94
2022-08-07T10:56:51.088Z,1004.92
2022-08-07T10:57:56.086Z,1004.90
2022-08-07T10:58:56.718Z,1004.91
2022-08-07T10:59:52.053Z,1004.90
2022-08-07T11:00:55.950Z,1004.92
2022-08-07T11:02:04.668Z,1004.97
2022-08-07T11:02:53.883Z,1004.96
2022-08-07T11:03:55.059Z,1004.96
2022-08-07T11:04:52.041Z,1004.97
2022-08-07T11:05:51.372Z,1004.93
2022-08-07T11:06:51.041Z,1004.90
2022-08-07T11:07:59.205Z,1004.89
2022-08-07T11:08:52.062Z,1004.88
2022-08-07T11:10:07.606Z,1004.83
2022-08-07T11:10:57.893Z,1004.85
2022-08-07T11:11:52.992Z,1004.82
2022-08-07T11:13:01.623Z,1004.78
2022-08-07T11:14:43.877Z,1004.85
2022-08-07T11:15:00.421Z,1004.85
2022-08-07T11:15:54.662Z,1004.81
2022-08-07T11:16:54.633Z,1004.81
2022-08-07T11:17:53.994Z,1004.75
2022-08-07T11:18:51.737Z,1004.73
2022-08-07T11:19:51.506Z,1004.75
2022-08-07T11:20:50.942Z,1004.69
2022-08-07T11:21:50.915Z,1004.68
2022-08-07T11:22:50.929Z,1004.71
2022-08-07T11:23:50.888Z,1004.62
2022-08-07T11:24:51.775Z,1004.67
2022-08-07T11:25:50.906Z,1004.67
2022-08-07T11:26:50.889Z,1004.65
2022-08-07T11:28:01.795Z,1004.64
2022-08-07T11:28:55.298Z,1004.58
2022-08-07T11:30:10.031Z,1004.58
2022-08-07T11:30:52.857Z,1004.63
2022-08-07T11:31:51.813Z,1004.57
2022-08-07T11:32:53.597Z,1004.56
2022-08-07T11:33:58.548Z,1004.60
2022-08-07T11:34:52.353Z,1004.49
2022-08-07T11:35:59.864Z,1004.51
2022-08-07T11:36:51.856Z,1004.51
2022-08-07T11:37:57.778Z,1004.49
2022-08-07T11:38:51.777Z,1004.44
2022-08-07T11:40:00.727Z,1004.44
2022-08-07T11:40:51.785Z,1004.39
2022-08-07T11:42:01.540Z,1004.41
2022-08-07T11:42:51.752Z,1004.37
2022-08-07T11:44:11.402Z,1004.40
2022-08-07T11:44:57.502Z,1004.39
2022-08-07T11:45:53.655Z,1004.40
2022-08-07T11:46:50.753Z,1004.38
2022-08-07T11:47:56.144Z,1004.45
2022-08-07T11:49:27.617Z,1004.36
2022-08-07T11:50:30.361Z,1004.29
2022-08-07T11:50:57.899Z,1004.32
2022-08-07T11:51:51.753Z,1004.36
2022-08-07T11:52:51.287Z,1004.29
2022-08-07T11:54:00.643Z,1004.40
2022-08-07T11:54:54.949Z,1004.35
2022-08-07T11:56:09.253Z,1004.34
2022-08-07T11:56:52.313Z,1004.37
2022-08-07T11:58:00.064Z,1004.34
2022-08-07T11:58:51.651Z,1004.34
2022-08-07T12:00:10.897Z,1004.33
2022-08-07T12:01:02.402Z,1004.34
2022-08-07T12:01:59.021Z,1004.32
2022-08-07T12:02:53.539Z,1004.27
2022-08-07T12:03:50.851Z,1004.26
2022-08-07T12:04:50.600Z,1004.26
2022-08-07T12:05:51.390Z,1004.22
2022-08-07T12:07:00.335Z,1004.26
2022-08-07T12:07:53.690Z,1004.18
2022-08-07T12:08:52.481Z,1004.22
2022-08-07T12:09:50.563Z,1004.25
2022-08-07T12:11:08.196Z,1004.18
2022-08-07T12:12:09.011Z,1004.24
2022-08-07T12:12:51.527Z,1004.22
2022-08-07T12:13:51.391Z,1004.24
2022-08-07T12:14:56.153Z,1004.22
2022-08-07T12:16:07.045Z,1004.21
2022-08-07T12:16:51.521Z,1004.26
2022-08-07T12:17:58.978Z,1004.31
2022-08-07T12:18:51.520Z,1004.24
2022-08-07T12:19:56.498Z,1004.27
2022-08-07T12:20:52.511Z,1004.19
2022-08-07T12:21:55.535Z,1004.25
2022-08-07T12:22:56.537Z,1004.23
2022-08-07T12:24:05.318Z,1004.19
2022-08-07T12:24:52.414Z,1004.32
2022-08-07T12:26:02.797Z,1004.25
2022-08-07T12:26:51.500Z,1004.29
2022-08-07T12:28:08.872Z,1004.23
2022-08-07T12:28:53.089Z,1004.27
2022-08-07T12:29:51.803Z,1004.25
2022-08-07T12:30:53.359Z,1004.22
2022-08-07T12:32:01.924Z,1004.15
2022-08-07T12:32:51.396Z,1004.19
2022-08-07T12:33:56.088Z,1004.12
2022-08-07T12:34:55.719Z,1004.19
2022-08-07T12:35:58.165Z,1004.18
2022-08-07T12:36:51.394Z,1004.25